Terminal Aerodrome Forecast
Issued by NWS

Home | Current Version | Previous Version | Text Only | Print | Product List | Glossary On
Versions: 1 2 3 4 5 6 7 8 9 10 11 12 13 14 15
000
FTUS43 KLSX 062332
TAFUIN
TAF
KUIN 062332Z 0700/0724 20012KT P6SM SCT040 BKN250
     FM070200 23008KT 5SM -TSRA BKN040CB
      TEMPO 0703/0705 2SM +TSRA OVC020CB
     FM070600 29008KT 4SM -SHRA BR VCTS OVC020CB
     FM071200 36010KT 6SM -RA BR OVC010
     FM071600 03010KT P6SM OVC012
     FM072000 04010KT P6SM SCT012 OVC060=

USA.gov is the U.S. government's official web portal to all federal, state and local government web resources and services.